createdAt,value
2023-02-08T00:07:51.099Z,34.00
2023-02-08T00:17:51.396Z,29.20
2023-02-08T00:27:51.450Z,30.50
2023-02-08T00:37:58.854Z,29.00
2023-02-08T00:47:51.924Z,26.40
2023-02-08T00:57:52.240Z,30.50
2023-02-08T01:07:52.263Z,36.90
2023-02-08T01:17:52.597Z,39.60
2023-02-08T01:27:52.643Z,37.50
2023-02-08T01:37:52.974Z,34.50
2023-02-08T01:47:53.019Z,38.70
2023-02-08T01:57:53.333Z,32.60
2023-02-08T02:07:53.397Z,38.50
2023-02-08T02:17:53.708Z,32.90
2023-02-08T02:27:53.763Z,36.70
2023-02-08T02:37:54.073Z,41.00
2023-02-08T02:47:54.112Z,36.80
2023-02-08T02:57:54.465Z,34.30
2023-02-08T03:07:54.488Z,36.00
2023-02-08T03:17:54.824Z,33.20
2023-02-08T03:27:54.892Z,32.60
2023-02-08T03:37:55.201Z,30.10
2023-02-08T03:47:55.233Z,28.60
2023-02-08T03:57:55.558Z,30.50
2023-02-08T04:07:55.586Z,42.40
2023-02-08T04:17:56.851Z,35.80
2023-02-08T04:27:55.920Z,33.00
2023-02-08T04:37:56.206Z,26.30
2023-02-08T04:47:57.851Z,25.10
2023-02-08T04:57:57.502Z,29.80
2023-02-08T05:07:56.556Z,26.50
2023-02-08T05:17:56.842Z,26.00
2023-02-08T05:27:56.907Z,26.30
2023-02-08T05:37:57.001Z,25.90
2023-02-08T05:47:57.030Z,26.20
2023-02-08T05:57:57.378Z,27.20
2023-02-08T06:07:57.400Z,33.50
2023-02-08T06:17:57.736Z,33.70
2023-02-08T06:27:57.809Z,33.50
2023-02-08T06:38:01.330Z,29.60
2023-02-08T06:47:58.146Z,21.40
2023-02-08T06:57:58.512Z,20.50
2023-02-08T07:08:00.332Z,22.10
2023-02-08T07:18:02.251Z,22.70
2023-02-08T07:27:58.897Z,21.20
2023-02-08T07:37:59.013Z,24.40
2023-02-08T07:47:59.042Z,21.90
2023-02-08T07:57:59.400Z,25.60
2023-02-08T08:07:59.438Z,21.10
2023-02-08T08:17:59.766Z,23.80
2023-02-08T08:27:59.871Z,18.70
2023-02-08T08:37:59.922Z,18.20
2023-02-08T08:48:00.159Z,17.90
2023-02-08T08:58:00.412Z,19.60
2023-02-08T09:08:00.652Z,21.20
2023-02-08T09:18:00.977Z,23.90
2023-02-08T09:28:01.057Z,25.20
2023-02-08T09:38:01.237Z,25.70
2023-02-08T09:48:01.296Z,28.40
2023-02-08T09:58:01.612Z,26.90
2023-02-08T10:08:01.639Z,25.60
2023-02-08T10:18:01.905Z,24.00
2023-02-08T10:28:02.098Z,25.10
2023-02-08T10:38:02.245Z,27.70
2023-02-08T10:48:02.279Z,24.30
2023-02-08T10:58:02.612Z,25.30
2023-02-08T11:08:02.717Z,23.80
2023-02-08T11:18:02.780Z,22.30
2023-02-08T11:28:03.049Z,23.60
2023-02-08T11:38:03.152Z,24.90
2023-02-08T11:48:03.193Z,23.70
2023-02-08T11:58:03.521Z,25.30
2023-02-08T12:08:03.595Z,24.10
2023-02-08T12:18:03.724Z,24.60
2023-02-08T12:28:03.757Z,23.60
2023-02-08T12:38:04.324Z,23.80
2023-02-08T12:48:05.093Z,24.10
2023-02-08T12:58:05.244Z,24.20
2023-02-08T13:08:04.478Z,23.40
2023-02-08T13:18:04.848Z,23.90
2023-02-08T13:28:04.922Z,23.30
2023-02-08T13:38:08.245Z,23.90
2023-02-08T13:48:05.289Z,23.60
2023-02-08T13:58:05.634Z,24.00
2023-02-08T14:08:05.682Z,23.70
2023-02-08T14:18:06.008Z,23.10
2023-02-08T14:28:06.067Z,23.50
2023-02-08T14:38:06.281Z,23.20
2023-02-08T14:48:06.700Z,24.40
2023-02-08T14:58:10.039Z,26.30
2023-02-08T15:08:06.875Z,26.60
2023-02-08T15:18:07.227Z,24.30
2023-02-08T15:28:07.269Z,25.50
2023-02-08T15:38:07.600Z,22.00
2023-02-08T15:48:07.641Z,26.80
2023-02-08T15:58:07.962Z,25.30
2023-02-08T16:08:08.002Z,26.90
2023-02-08T16:18:08.429Z,21.80
2023-02-08T16:28:08.364Z,29.10
2023-02-08T16:38:09.420Z,25.60
2023-02-08T16:48:18.536Z,28.10
2023-02-08T16:58:10.075Z,27.10
2023-02-08T17:08:09.113Z,24.80
2023-02-08T17:18:09.172Z,29.50
2023-02-08T17:28:09.633Z,25.60
2023-02-08T17:38:09.744Z,26.80
2023-02-08T17:48:09.867Z,24.40
2023-02-08T17:58:09.928Z,29.30
2023-02-08T18:08:10.169Z,24.90
2023-02-08T18:18:14.543Z,27.50
2023-02-08T18:28:10.742Z,29.20
2023-02-08T18:38:10.719Z,28.60
2023-02-08T18:48:10.996Z,28.00
2023-02-08T18:58:12.652Z,31.90
2023-02-08T19:08:11.476Z,25.70
2023-02-08T19:18:11.695Z,26.80
2023-02-08T19:28:16.774Z,27.70
2023-02-08T19:38:12.016Z,28.80
2023-02-08T19:48:15.588Z,27.00
2023-02-08T19:58:12.175Z,28.60
2023-02-08T20:08:12.502Z,26.60
2023-02-08T20:18:12.789Z,23.60
2023-02-08T20:28:13.061Z,24.30
2023-02-08T20:38:13.257Z,22.60
2023-02-08T20:48:13.255Z,21.60
2023-02-08T20:58:13.178Z,22.20
2023-02-08T21:08:13.556Z,20.40
2023-02-08T21:18:14.540Z,23.90
2023-02-08T21:28:14.004Z,19.80
2023-02-08T21:38:14.105Z,16.60
2023-02-08T21:48:14.440Z,21.70
2023-02-08T21:58:14.490Z,22.50
2023-02-08T22:08:14.822Z,21.00
2023-02-08T22:18:14.860Z,23.40
2023-02-08T22:28:16.146Z,23.80
2023-02-08T22:38:15.226Z,20.80
2023-02-08T22:48:15.557Z,20.40
2023-02-08T22:58:15.588Z,19.10
2023-02-08T23:08:15.819Z,18.90
2023-02-08T23:18:16.089Z,22.10
2023-02-08T23:28:16.429Z,24.10
2023-02-08T23:38:16.491Z,21.70
2023-02-08T23:48:16.728Z,21.50
2023-02-08T23:58:16.965Z,20.30
